High temp

Not for real navigation. The accuracy of this data is not assured See disclaimer for more information



ICAO NAME COUNTRY WIND Kt GUST Kt VIS m TEMP/DEW C BARO METAR
ORMM 25 0 9999 47/5 29.50 ORMM 181200Z 28025KT CAVOK 47/05 Q0999 NOSIG
OIAM Bandar Mahshahr / Mahshahr Iran 17 29 9999 46/2 29.41 OIAM 181200Z 30017G29KT CAVOK 46/02 Q0996
OIAG Omidieh Iran 23 0 7000 46/0 29.41 OIAG 181100Z 33023KT 7000 NSC 46/00 Q0996
OIAA Abadan Iran 12 0 7000 46/10 29.47 OIAA 181200Z 30012KT 7000 NSC 46/10 Q0998
OIAW Ahwaz Iran 14 25 5000 46/0 29.41 OIAW 181230Z 31014G25KT 5000 DU NSC 46/M00 Q0996

Show more